createdAt,value
2022-08-28T00:00:45.036Z,18.88
2022-08-28T00:03:15.422Z,16.45
2022-08-28T00:05:46.489Z,20.15
2022-08-28T00:08:17.847Z,20.60
2022-08-28T00:10:47.446Z,18.02
2022-08-28T00:13:22.669Z,22.70
2022-08-28T00:15:55.606Z,18.92
2022-08-28T00:18:26.528Z,17.67
2022-08-28T00:20:55.427Z,21.27
2022-08-28T00:23:25.435Z,22.70
2022-08-28T00:26:05.613Z,21.38
2022-08-28T00:28:33.869Z,22.08
2022-08-28T00:31:02.412Z,20.45
2022-08-28T00:33:34.051Z,18.27
2022-08-28T00:36:04.848Z,24.20
2022-08-28T00:38:34.708Z,19.98
2022-08-28T00:41:04.973Z,24.65
2022-08-28T00:43:38.580Z,20.52
2022-08-28T00:46:11.365Z,23.73
2022-08-28T00:48:39.864Z,24.45
2022-08-28T00:51:26.777Z,21.50
2022-08-28T00:53:59.718Z,19.35
2022-08-28T00:56:30.289Z,22.38
2022-08-28T00:59:05.191Z,22.95
2022-08-28T01:01:33.579Z,19.85
2022-08-28T01:04:06.116Z,25.15
2022-08-28T01:06:35.169Z,18.85
2022-08-28T01:09:06.483Z,17.02
2022-08-28T01:11:35.211Z,22.40
2022-08-28T01:14:05.599Z,25.95
2022-08-28T01:16:34.806Z,22.63
2022-08-28T01:19:07.912Z,17.63
2022-08-28T01:21:45.992Z,21.95
2022-08-28T01:24:18.814Z,19.63
2022-08-28T01:26:47.665Z,21.92
2022-08-28T01:29:16.391Z,25.83
2022-08-28T01:31:45.085Z,22.77
2022-08-28T01:34:14.731Z,20.85
2022-08-28T01:36:43.933Z,29.00
2022-08-28T01:39:19.206Z,23.10
2022-08-28T01:41:51.792Z,25.63
2022-08-28T01:44:24.162Z,21.50
2022-08-28T01:46:55.244Z,21.33
2022-08-28T01:49:25.713Z,23.20
2022-08-28T01:51:54.850Z,23.30
2022-08-28T01:54:26.817Z,26.23
2022-08-28T01:56:56.142Z,28.08
2022-08-28T01:59:24.863Z,22.48
2022-08-28T02:01:53.979Z,27.67
2022-08-28T02:04:23.066Z,18.73
2022-08-28T02:07:00.289Z,19.40
2022-08-28T02:09:30.001Z,22.85
2022-08-28T02:11:58.389Z,21.75
2022-08-28T02:14:26.868Z,23.60
2022-08-28T02:16:56.273Z,25.08
2022-08-28T02:19:24.641Z,22.55
2022-08-28T02:21:53.155Z,23.00
2022-08-28T02:24:22.180Z,22.60
2022-08-28T02:26:51.839Z,29.77
2022-08-28T02:29:20.196Z,24.48
2022-08-28T02:31:48.653Z,29.00
2022-08-28T02:34:19.794Z,24.08
2022-08-28T02:36:49.186Z,23.85
2022-08-28T02:39:17.790Z,28.52
2022-08-28T02:41:46.228Z,27.55
2022-08-28T02:44:17.297Z,23.30
2022-08-28T02:46:45.716Z,31.67
2022-08-28T02:49:14.162Z,23.88
2022-08-28T02:51:42.962Z,21.73
2022-08-28T02:54:11.676Z,24.15
2022-08-28T02:56:43.148Z,24.60
2022-08-28T02:59:11.544Z,33.10
2022-08-28T03:01:41.304Z,28.42
2022-08-28T03:04:09.679Z,26.85
2022-08-28T03:06:38.096Z,29.27
2022-08-28T03:09:06.907Z,29.48
2022-08-28T03:11:36.500Z,33.72
2022-08-28T03:14:05.186Z,26.90
2022-08-28T03:16:34.202Z,26.52
2022-08-28T03:19:04.004Z,30.83
2022-08-28T03:21:32.353Z,28.10
2022-08-28T03:23:59.759Z,30.38
2022-08-28T03:26:28.511Z,24.63
2022-08-28T03:28:57.566Z,25.77
2022-08-28T03:31:33.699Z,27.63
2022-08-28T03:34:04.640Z,27.50
2022-08-28T03:36:33.748Z,27.38
2022-08-28T03:39:05.504Z,32.22
2022-08-28T03:41:35.827Z,25.98
2022-08-28T03:44:05.088Z,32.38
2022-08-28T03:46:35.041Z,30.98
2022-08-28T03:49:06.650Z,30.67
2022-08-28T03:51:36.252Z,29.50
2022-08-28T03:54:05.807Z,26.25
2022-08-28T03:56:34.280Z,26.02
2022-08-28T03:59:05.473Z,24.45
2022-08-28T04:01:34.498Z,27.20
2022-08-28T04:04:05.022Z,36.45
2022-08-28T04:06:33.405Z,24.70
2022-08-28T04:09:04.825Z,32.15
2022-08-28T04:11:38.318Z,31.05
2022-08-28T04:14:07.006Z,26.83
2022-08-28T04:16:35.456Z,25.52
2022-08-28T04:19:05.375Z,30.50
2022-08-28T04:21:33.859Z,27.15
2022-08-28T04:24:03.048Z,29.85
2022-08-28T04:26:36.511Z,25.80
2022-08-28T04:29:06.753Z,28.63
2022-08-28T04:31:36.059Z,25.88
2022-08-28T04:34:08.632Z,29.70
2022-08-28T04:36:37.885Z,26.75
2022-08-28T04:39:08.609Z,26.40
2022-08-28T04:41:38.731Z,27.02
2022-08-28T04:44:08.736Z,25.67
2022-08-28T04:46:38.701Z,25.02
2022-08-28T04:49:08.498Z,27.58
2022-08-28T04:51:40.084Z,27.02
2022-08-28T04:54:11.725Z,36.20
2022-08-28T04:56:41.967Z,22.98
2022-08-28T04:59:11.691Z,24.35
2022-08-28T05:01:42.947Z,25.60
2022-08-28T05:04:13.988Z,24.80
2022-08-28T05:06:46.032Z,34.53
2022-08-28T05:09:16.865Z,35.95
2022-08-28T05:11:45.696Z,29.55
2022-08-28T05:14:16.399Z,32.30
2022-08-28T05:16:48.503Z,30.08
2022-08-28T05:19:20.633Z,30.63
2022-08-28T05:21:49.989Z,32.33
2022-08-28T05:24:18.849Z,30.60
2022-08-28T05:26:48.241Z,32.17
2022-08-28T05:29:17.684Z,27.35
2022-08-28T05:31:47.448Z,30.95
2022-08-28T05:34:17.925Z,29.02
2022-08-28T05:36:46.300Z,23.30
2022-08-28T05:39:15.135Z,28.00
2022-08-28T05:41:46.723Z,26.13
2022-08-28T05:44:20.898Z,21.70
2022-08-28T05:46:49.936Z,24.63
2022-08-28T05:49:20.454Z,28.80
2022-08-28T05:51:49.900Z,25.77
2022-08-28T05:54:18.967Z,32.10
2022-08-28T05:56:48.466Z,32.58
2022-08-28T05:59:17.733Z,29.63
2022-08-28T06:01:48.941Z,26.50
2022-08-28T06:04:23.436Z,29.45
2022-08-28T06:06:52.128Z,23.88
2022-08-28T06:09:28.687Z,26.45
2022-08-28T06:12:00.835Z,25.60
2022-08-28T06:14:31.180Z,23.85
2022-08-28T06:17:00.480Z,22.63
2022-08-28T06:19:33.569Z,22.10
2022-08-28T06:22:07.157Z,24.05
2022-08-28T06:24:35.871Z,22.97
2022-08-28T06:27:04.390Z,21.45
2022-08-28T06:29:32.723Z,21.58
2022-08-28T06:32:05.365Z,23.60
2022-08-28T06:34:35.523Z,17.58
2022-08-28T06:37:04.000Z,24.08
2022-08-28T06:39:32.325Z,26.52
2022-08-28T06:42:01.302Z,17.80
2022-08-28T06:44:32.018Z,22.08
2022-08-28T06:47:00.516Z,20.40
2022-08-28T06:49:28.999Z,19.75
2022-08-28T06:51:58.746Z,26.30
2022-08-28T06:54:27.109Z,19.50
2022-08-28T06:56:55.558Z,21.75
2022-08-28T06:59:24.072Z,16.42
2022-08-28T07:01:54.740Z,19.60
2022-08-28T07:04:23.352Z,17.50
2022-08-28T07:06:54.494Z,22.58
2022-08-28T07:09:25.318Z,19.90
2022-08-28T07:11:54.293Z,22.42
2022-08-28T07:14:23.228Z,23.38
2022-08-28T07:16:54.477Z,20.15
2022-08-28T07:19:22.882Z,19.50
2022-08-28T07:21:51.239Z,21.83
2022-08-28T07:24:20.165Z,20.27
2022-08-28T07:26:50.222Z,21.35
2022-08-28T07:29:19.862Z,21.45
2022-08-28T07:31:55.868Z,20.92
2022-08-28T07:34:27.068Z,21.48
2022-08-28T07:36:56.240Z,22.83
2022-08-28T07:39:25.163Z,20.02
2022-08-28T07:41:54.911Z,18.75
2022-08-28T07:44:41.023Z,23.45
2022-08-28T07:47:11.545Z,18.70
2022-08-28T07:49:41.466Z,17.60
2022-08-28T07:52:11.849Z,19.67
2022-08-28T07:54:40.820Z,19.33
2022-08-28T07:57:11.074Z,18.52
2022-08-28T07:59:42.857Z,19.02
2022-08-28T08:02:11.810Z,18.33
2022-08-28T08:04:40.964Z,22.50
2022-08-28T08:07:10.097Z,20.67
2022-08-28T08:09:40.321Z,18.88
2022-08-28T08:12:11.665Z,20.85
2022-08-28T08:14:41.093Z,18.40
2022-08-28T08:17:10.242Z,20.60
2022-08-28T08:19:39.395Z,17.77
2022-08-28T08:22:08.352Z,17.05
2022-08-28T08:24:36.823Z,17.90
2022-08-28T08:27:06.629Z,21.02
2022-08-28T08:29:39.068Z,17.67
2022-08-28T08:32:11.002Z,19.20
2022-08-28T08:34:42.891Z,16.77
2022-08-28T08:37:13.273Z,23.35
2022-08-28T08:39:43.669Z,14.15
2022-08-28T08:42:23.972Z,18.13
2022-08-28T08:44:56.517Z,16.35
2022-08-28T08:47:35.350Z,13.77
2022-08-28T08:50:08.088Z,18.85
2022-08-28T08:52:51.384Z,16.95
2022-08-28T08:55:31.408Z,15.30
2022-08-28T08:58:07.991Z,20.40
2022-08-28T09:00:58.105Z,27.33
2022-08-28T09:03:39.611Z,13.82
2022-08-28T09:06:34.011Z,18.45
2022-08-28T09:09:07.978Z,14.77
2022-08-28T09:11:46.063Z,16.10
2022-08-28T09:14:29.448Z,15.35
2022-08-28T09:17:00.499Z,22.42
2022-08-28T09:19:28.900Z,15.65
2022-08-28T09:21:58.147Z,13.77
2022-08-28T09:24:31.801Z,16.67
2022-08-28T09:27:14.207Z,15.20
2022-08-28T09:29:44.026Z,20.10
2022-08-28T09:32:26.703Z,12.73
2022-08-28T09:35:15.294Z,14.38
2022-08-28T09:37:45.053Z,19.52
2022-08-28T09:40:52.728Z,12.27
2022-08-28T09:43:28.451Z,14.07
2022-08-28T09:46:01.772Z,16.58
2022-08-28T09:48:38.148Z,14.93
2022-08-28T09:51:09.174Z,14.85
2022-08-28T09:53:44.018Z,13.30
2022-08-28T09:56:19.472Z,15.18
2022-08-28T09:58:51.445Z,15.68
2022-08-28T10:01:40.591Z,13.40
2022-08-28T10:04:47.491Z,14.45
2022-08-28T10:07:25.309Z,13.52
2022-08-28T10:10:06.519Z,15.60
2022-08-28T10:12:51.413Z,11.38
2022-08-28T10:15:29.887Z,15.88
2022-08-28T10:18:31.348Z,11.20
2022-08-28T10:21:12.821Z,13.07
2022-08-28T10:24:13.842Z,14.20
2022-08-28T10:26:50.398Z,14.93
2022-08-28T10:29:32.625Z,11.25
2022-08-28T10:32:40.222Z,12.30
2022-08-28T10:35:15.958Z,10.32
2022-08-28T10:37:58.046Z,11.57
2022-08-28T10:40:31.166Z,12.45
2022-08-28T10:43:06.031Z,12.60
2022-08-28T10:45:36.125Z,11.18
2022-08-28T10:48:12.270Z,13.93
2022-08-28T10:50:47.826Z,11.07
2022-08-28T10:53:22.452Z,12.10
2022-08-28T10:55:59.224Z,10.50
2022-08-28T10:58:29.032Z,14.70
2022-08-28T11:01:02.258Z,8.52
2022-08-28T11:03:40.522Z,11.93
2022-08-28T11:06:17.885Z,10.63
2022-08-28T11:08:54.620Z,11.20
2022-08-28T11:11:44.545Z,14.10
2022-08-28T11:14:26.878Z,14.40
2022-08-28T11:17:01.459Z,11.02
2022-08-28T11:20:14.014Z,9.90
2022-08-28T11:22:48.008Z,9.27
2022-08-28T11:25:26.709Z,15.13
2022-08-28T11:28:44.683Z,13.80
2022-08-28T11:31:43.359Z,12.52
2022-08-28T11:34:57.994Z,15.68
2022-08-28T11:37:40.468Z,10.88
2022-08-28T11:40:19.405Z,15.10
2022-08-28T11:42:49.380Z,10.73
2022-08-28T11:45:22.893Z,14.50
2022-08-28T11:47:57.748Z,10.32
2022-08-28T11:50:34.666Z,14.45
2022-08-28T11:53:37.954Z,12.40
2022-08-28T11:56:37.679Z,10.40
2022-08-28T12:00:03.000Z,13.40
2022-08-28T12:03:12.097Z,15.95
2022-08-28T12:05:46.667Z,14.57
2022-08-28T12:09:04.232Z,19.13
2022-08-28T12:12:11.959Z,10.18
2022-08-28T12:15:10.185Z,16.38
2022-08-28T12:17:54.503Z,12.95
2022-08-28T12:20:48.499Z,13.10
2022-08-28T12:23:43.057Z,11.63
2022-08-28T12:26:24.547Z,13.45
2022-08-28T12:28:58.832Z,11.82
2022-08-28T12:32:15.068Z,12.50
2022-08-28T12:34:55.702Z,9.95
2022-08-28T12:37:47.561Z,8.73
2022-08-28T12:40:25.309Z,9.57
2022-08-28T12:42:57.042Z,14.02
2022-08-28T12:45:32.353Z,9.55
2022-08-28T12:48:05.540Z,36.17
2022-08-28T12:50:38.239Z,17.42
2022-08-28T12:53:13.114Z,9.50
2022-08-28T12:55:42.182Z,11.45
2022-08-28T12:58:15.149Z,10.35
2022-08-28T13:00:56.345Z,6.20
2022-08-28T13:03:25.103Z,12.63
2022-08-28T13:06:01.524Z,10.15
2022-08-28T13:08:31.369Z,6.88
2022-08-28T13:10:59.989Z,12.38
2022-08-28T13:13:36.734Z,14.00
2022-08-28T13:16:08.897Z,8.02
2022-08-28T13:18:51.524Z,8.05
2022-08-28T13:21:37.225Z,6.93
2022-08-28T13:24:27.481Z,10.75
2022-08-28T13:27:06.763Z,8.80
2022-08-28T13:29:35.458Z,8.27
2022-08-28T13:32:08.313Z,25.23
2022-08-28T13:34:45.530Z,10.10
2022-08-28T13:37:43.077Z,7.30
2022-08-28T13:43:06.809Z,8.70
2022-08-28T13:45:42.567Z,10.27
2022-08-28T13:48:14.162Z,13.80
2022-08-28T13:50:47.961Z,6.57
2022-08-28T13:53:19.754Z,10.23
2022-08-28T13:55:51.395Z,8.30
2022-08-28T13:58:19.807Z,9.55
2022-08-28T14:00:51.045Z,7.25
2022-08-28T14:03:35.989Z,12.50
2022-08-28T14:06:06.392Z,8.10
2022-08-28T14:08:35.142Z,18.05
2022-08-28T14:11:04.339Z,8.63
2022-08-28T14:13:32.740Z,10.02
2022-08-28T14:16:01.325Z,10.95
2022-08-28T14:18:31.043Z,17.50
2022-08-28T14:20:59.577Z,7.32
2022-08-28T14:23:28.028Z,8.25
2022-08-28T14:25:56.537Z,7.68
2022-08-28T14:28:24.921Z,5.90
2022-08-28T14:30:53.568Z,5.97
2022-08-28T14:33:22.376Z,5.07
2022-08-28T14:35:52.876Z,8.55
2022-08-28T14:38:21.435Z,7.68
2022-08-28T14:40:50.263Z,10.77
2022-08-28T14:43:22.471Z,9.00
2022-08-28T14:45:52.708Z,8.02
2022-08-28T14:48:21.250Z,7.15
2022-08-28T14:50:50.118Z,10.02
2022-08-28T14:53:19.904Z,6.05
2022-08-28T14:55:50.806Z,8.57
2022-08-28T14:58:20.921Z,5.47
2022-08-28T15:00:51.989Z,10.23
2022-08-28T15:03:22.140Z,7.43
2022-08-28T15:06:01.986Z,6.15
2022-08-28T15:08:32.472Z,5.00
2022-08-28T15:11:06.629Z,7.80
2022-08-28T15:13:35.387Z,6.32
2022-08-28T15:16:10.462Z,7.05
2022-08-28T15:18:45.846Z,7.68
2022-08-28T15:21:18.761Z,7.38
2022-08-28T15:23:50.557Z,5.97
2022-08-28T15:26:19.524Z,5.75
2022-08-28T15:28:48.560Z,10.07
2022-08-28T15:31:17.403Z,4.50
2022-08-28T15:33:45.987Z,9.25
2022-08-28T15:36:14.575Z,7.32
2022-08-28T15:39:00.634Z,9.60
2022-08-28T15:41:31.727Z,9.52
2022-08-28T15:44:02.293Z,6.90
2022-08-28T15:46:33.975Z,5.88
2022-08-28T15:49:03.476Z,5.07
2022-08-28T15:51:32.624Z,5.60
2022-08-28T15:54:01.517Z,8.45
2022-08-28T15:56:31.338Z,6.93
2022-08-28T15:58:59.754Z,7.93
2022-08-28T16:01:28.547Z,5.93
2022-08-28T16:03:57.102Z,4.47
2022-08-28T16:06:26.940Z,7.80
2022-08-28T16:08:55.905Z,8.15
2022-08-28T16:11:24.658Z,5.03
2022-08-28T16:13:54.956Z,5.38
2022-08-28T16:16:23.407Z,6.68
2022-08-28T16:18:54.173Z,6.72
2022-08-28T16:21:22.855Z,6.97
2022-08-28T16:23:56.157Z,7.60
2022-08-28T16:26:24.708Z,6.78
2022-08-28T16:28:54.788Z,7.80
2022-08-28T16:31:23.368Z,6.25
2022-08-28T16:33:52.083Z,6.00
2022-08-28T16:36:23.757Z,5.72
2022-08-28T16:39:00.551Z,8.05
2022-08-28T16:41:33.482Z,5.15
2022-08-28T16:44:03.673Z,5.30
2022-08-28T16:46:32.358Z,6.93
2022-08-28T16:49:01.471Z,7.20
2022-08-28T16:51:29.999Z,7.70
2022-08-28T16:53:58.926Z,9.88
2022-08-28T16:56:27.405Z,7.43
2022-08-28T16:58:57.086Z,7.53
2022-08-28T17:01:27.401Z,11.32
2022-08-28T17:03:56.946Z,6.50
2022-08-28T17:06:28.486Z,7.35
2022-08-28T17:08:57.906Z,8.07
2022-08-28T17:11:27.620Z,6.35
2022-08-28T17:13:56.600Z,10.25
2022-08-28T17:16:29.654Z,12.15
2022-08-28T17:18:58.690Z,7.32
2022-08-28T17:21:44.622Z,6.13
2022-08-28T17:24:13.471Z,5.10
2022-08-28T17:26:44.469Z,8.90
2022-08-28T17:29:12.926Z,9.15
2022-08-28T17:31:42.940Z,6.35
2022-08-28T17:34:12.216Z,5.90
2022-08-28T17:36:43.384Z,5.00
2022-08-28T17:39:15.544Z,7.25
2022-08-28T17:41:44.142Z,10.18
2022-08-28T17:44:13.839Z,26.48
2022-08-28T17:46:43.642Z,13.18
2022-08-28T17:49:12.144Z,10.98
2022-08-28T17:51:43.233Z,11.50
2022-08-28T17:54:14.010Z,5.78
2022-08-28T17:56:43.025Z,12.80
2022-08-28T17:59:12.122Z,6.05
2022-08-28T18:01:43.288Z,7.43
2022-08-28T18:04:12.664Z,6.88
2022-08-28T18:06:41.230Z,6.82
2022-08-28T18:09:10.784Z,7.50
2022-08-28T18:11:39.262Z,9.05
2022-08-28T18:14:08.461Z,7.47
2022-08-28T18:16:39.341Z,7.57
2022-08-28T18:19:11.663Z,8.57
2022-08-28T18:21:41.252Z,6.32
2022-08-28T18:24:12.979Z,5.53
2022-08-28T18:26:42.565Z,6.53
2022-08-28T18:29:11.456Z,10.00
2022-08-28T18:31:40.181Z,6.53
2022-08-28T18:34:10.949Z,8.32
2022-08-28T18:36:41.539Z,10.00
2022-08-28T18:39:10.978Z,9.38
2022-08-28T18:41:43.778Z,24.38
2022-08-28T18:44:15.284Z,7.05
2022-08-28T18:46:44.830Z,6.68
2022-08-28T18:49:14.791Z,8.52
2022-08-28T18:51:44.918Z,14.85
2022-08-28T18:54:16.617Z,11.98
2022-08-28T18:56:45.345Z,10.75
2022-08-28T18:59:14.496Z,11.55
2022-08-28T19:01:43.539Z,13.45
2022-08-28T19:04:12.132Z,7.63
2022-08-28T19:06:42.309Z,12.32
2022-08-28T19:09:19.348Z,13.07
2022-08-28T19:11:49.556Z,9.02
2022-08-28T19:14:18.085Z,7.60
2022-08-28T19:16:46.982Z,9.82
2022-08-28T19:19:15.724Z,6.05
2022-08-28T19:21:45.831Z,14.02
2022-08-28T19:24:17.742Z,19.63
2022-08-28T19:26:46.227Z,9.90
2022-08-28T19:29:15.054Z,5.03
2022-08-28T19:31:44.744Z,7.22
2022-08-28T19:34:13.565Z,11.25
2022-08-28T19:36:42.514Z,8.52
2022-08-28T19:39:13.016Z,13.50
2022-08-28T19:41:41.586Z,12.70
2022-08-28T19:44:11.087Z,4.90
2022-08-28T19:46:40.733Z,7.90
2022-08-28T19:49:09.437Z,7.22
2022-08-28T19:51:39.846Z,7.25
2022-08-28T19:54:11.087Z,5.78
2022-08-28T19:56:41.903Z,5.63
2022-08-28T19:59:10.552Z,11.88
2022-08-28T20:01:43.665Z,6.53
2022-08-28T20:04:17.366Z,8.43
2022-08-28T20:06:46.844Z,9.67
2022-08-28T20:09:17.747Z,9.23
2022-08-28T20:11:49.017Z,11.60
2022-08-28T20:14:18.956Z,15.73
2022-08-28T20:16:50.851Z,7.03
2022-08-28T20:19:20.353Z,6.80
2022-08-28T20:21:51.004Z,8.45
2022-08-28T20:24:23.982Z,8.70
2022-08-28T20:26:54.569Z,6.93
2022-08-28T20:29:24.114Z,7.88
2022-08-28T20:31:53.130Z,10.23
2022-08-28T20:34:22.028Z,10.80
2022-08-28T20:36:50.657Z,8.25
2022-08-28T20:39:20.535Z,7.28
2022-08-28T20:41:50.340Z,7.40
2022-08-28T20:44:22.693Z,7.95
2022-08-28T20:46:53.781Z,10.15
2022-08-28T20:49:23.707Z,14.95
2022-08-28T20:51:56.937Z,10.68
2022-08-28T20:54:29.735Z,7.13
2022-08-28T20:57:00.308Z,11.43
2022-08-28T20:59:39.181Z,17.55
2022-08-28T21:02:11.519Z,8.23
2022-08-28T21:04:41.865Z,11.68
2022-08-28T21:07:11.520Z,5.70
2022-08-28T21:10:04.019Z,11.63
2022-08-28T21:12:29.278Z,7.28
2022-08-28T21:14:59.747Z,8.10
2022-08-28T21:17:29.814Z,12.98
2022-08-28T21:20:01.787Z,9.18
2022-08-28T21:22:31.846Z,8.40
2022-08-28T21:25:01.917Z,9.02
2022-08-28T21:27:30.401Z,9.98
2022-08-28T21:30:01.757Z,9.63
2022-08-28T21:32:32.568Z,10.07
2022-08-28T21:35:02.222Z,7.63
2022-08-28T21:37:32.290Z,8.25
2022-08-28T21:40:01.382Z,7.85
2022-08-28T21:42:30.166Z,12.57
2022-08-28T21:44:59.954Z,13.52
2022-08-28T21:47:28.715Z,11.00
2022-08-28T21:49:58.535Z,8.32
2022-08-28T21:52:30.339Z,14.40
2022-08-28T21:54:59.782Z,7.85
2022-08-28T21:57:29.304Z,9.98
2022-08-28T21:59:59.518Z,13.20
2022-08-28T22:02:28.541Z,10.18
2022-08-28T22:04:56.929Z,7.57
2022-08-28T22:07:25.693Z,13.07
2022-08-28T22:09:54.117Z,11.35
2022-08-28T22:12:22.558Z,10.45
2022-08-28T22:14:50.874Z,7.93
2022-08-28T22:17:21.688Z,8.70
2022-08-28T22:19:50.018Z,7.28
2022-08-28T22:22:35.811Z,13.85
2022-08-28T22:25:04.979Z,8.18
2022-08-28T22:27:34.549Z,6.57
2022-08-28T22:30:02.914Z,6.75
2022-08-28T22:32:32.667Z,12.25
2022-08-28T22:35:01.060Z,7.53
2022-08-28T22:37:29.325Z,8.90
2022-08-28T22:39:59.185Z,7.70
2022-08-28T22:42:27.619Z,10.23
2022-08-28T22:44:56.053Z,8.70
2022-08-28T22:47:24.487Z,7.80
2022-08-28T22:49:58.517Z,6.25
2022-08-28T22:52:27.740Z,9.35
2022-08-28T22:54:56.168Z,11.80
2022-08-28T22:57:24.981Z,9.55
2022-08-28T22:59:53.600Z,7.53
2022-08-28T23:02:27.178Z,8.60
2022-08-28T23:04:57.245Z,8.20
2022-08-28T23:07:25.653Z,10.15
2022-08-28T23:09:54.136Z,10.52
2022-08-28T23:12:22.559Z,9.68
2022-08-28T23:14:51.247Z,7.53
2022-08-28T23:17:20.242Z,8.13
2022-08-28T23:19:49.208Z,9.75
2022-08-28T23:22:20.176Z,9.05
2022-08-28T23:24:49.009Z,7.82
2022-08-28T23:27:36.287Z,9.40
2022-08-28T23:30:08.313Z,13.60
2022-08-28T23:32:37.292Z,7.72
2022-08-28T23:35:07.585Z,8.75
2022-08-28T23:37:39.572Z,9.63
2022-08-28T23:40:12.754Z,9.60
2022-08-28T23:42:41.494Z,8.85
2022-08-28T23:45:12.015Z,8.32
2022-08-28T23:47:40.953Z,12.32
2022-08-28T23:50:14.104Z,7.32
2022-08-28T23:52:45.232Z,8.00
2022-08-28T23:55:16.824Z,11.90
2022-08-28T23:57:46.143Z,8.13
